Hvidovre, Denmark
Current Conditions -  °F | °C
As of 8:50 PM on Sunday 23 Nov 2014 (Local Time) from EKCH Reporting Station
Broken Clouds Broken Clouds  
Wind Chill:   Ceiling: 1400
Heat Index:   Visibility: 5mi
Dew Point:   Wind: 24mph
Humidity: 82%   Direction: 150°SSE
Pressure: 30.06"   Gusts: NA
Location:  55.66°N, 12.47°E
Report Text: EKCH 231950Z 15021KT 8000 FEW012 BKN014 09/06 Q1018 BECMGSCT015
Loading
Personal Weather Stations






























Interactive Weather Map New forecast layout! Learn more

10-Day Weather Forecast

Advertisements
Track Severe Weather on mobile